Time;durP1;ratioP1;P1;durP2;ratioP2;P2;SDS_P1;SDS_P2;PMS_P1;PMS_P2;Temp;Humidity;BMP_temperature;BMP_pressure;BME280_temperature;BME280_humidity;BME280_pressure;Samples;Min_cycle;Max_cycle;Signal;HPM_P1;HPM_P2
2021/08/08 00:00:12;;;;;;;6.28;5.25;;;;;;;;;;4919891;29;20239;-92
2021/08/08 00:02:39;;;;;;;6.63;5.40;;;16.60;99.90;;;;;;4919752;29;20184;-91
2021/08/08 00:05:13;;;;;;;8.13;5.32;;;16.60;99.90;;;;;;4919980;29;20235;-93
2021/08/08 00:07:42;;;;;;;9.38;6.40;;;;;;;;;;4919552;29;20189;-92
2021/08/08 00:10:11;;;;;;;9.13;6.70;;;16.60;99.90;;;;;;4919353;29;20235;-93
2021/08/08 00:12:42;;;;;;;12.23;6.55;;;16.60;99.90;;;;;;4919449;29;20290;-93
2021/08/08 00:15:10;;;;;;;9.35;6.47;;;16.50;99.90;;;;;;4919631;29;20613;-93
2021/08/08 00:17:38;;;;;;;9.80;5.90;;;16.50;99.90;;;;;;4919529;29;20254;-93
2021/08/08 00:20:08;;;;;;;7.97;6.05;;;16.50;99.90;;;;;;4919603;29;20235;-93
2021/08/08 00:22:39;;;;;;;13.85;7.32;;;;;;;;;;4919166;29;20195;-93
2021/08/08 00:25:09;;;;;;;8.73;6.30;;;16.50;99.90;;;;;;4919599;29;20179;-93
2021/08/08 00:27:43;;;;;;;12.52;7.70;;;;;;;;;;4919181;29;20226;-93
2021/08/08 00:30:27;;;;;;;11.23;6.00;;;;;;;;;;4905585;29;20191;-92
2021/08/08 00:32:56;;;;;;;8.88;6.60;;;;;;;;;;4922929;29;20184;-93
2021/08/08 00:35:24;;;;;;;7.38;6.00;;;16.40;99.90;;;;;;4922873;29;20210;-92
2021/08/08 00:37:51;;;;;;;7.75;5.57;;;16.40;99.90;;;;;;4922861;29;20212;-93
2021/08/08 00:40:28;;;;;;;;;;;;;;;;;;;;;
2021/08/08 00:42:54;;;;;;;10.40;6.30;;;;;;;;;;4940452;29;20186;-93
2021/08/08 00:45:21;;;;;;;10.50;5.50;;;16.40;99.90;;;;;;4922761;29;20183;-92
2021/08/08 00:47:47;;;;;;;10.98;6.63;;;;;;;;;;4922422;29;20187;-94
2021/08/08 00:50:18;;;;;;;9.10;5.72;;;16.40;99.90;;;;;;4923061;29;20187;-94
2021/08/08 00:52:45;;;;;;;6.38;5.60;;;;;;;;;;4923742;29;20176;-93
2021/08/08 00:55:11;;;;;;;8.68;5.68;;;;;;;;;;4923596;29;20231;-93
2021/08/08 00:57:55;;;;;;;6.30;5.35;;;;;;;;;;4923017;29;20183;-93
2021/08/08 01:00:24;;;;;;;7.55;6.22;;;;;;;;;;4907052;29;20663;-93
2021/08/08 01:02:55;;;;;;;7.30;5.35;;;;;;;;;;4922314;29;20684;-92
2021/08/08 01:05:26;;;;;;;8.85;5.90;;;;;;;;;;4922397;29;20195;-92
2021/08/08 01:07:55;;;;;;;9.48;5.18;;;;;;;;;;4922495;29;20242;-92
2021/08/08 01:10:21;;;;;;;7.78;5.50;;;;;;;;;;4922631;29;20180;-92
2021/08/08 01:12:51;;;;;;;7.38;5.53;;;;;;;;;;4922870;29;20687;-92
2021/08/08 01:15:17;;;;;;;7.53;5.57;;;;;;;;;;4922592;29;20194;-93
2021/08/08 01:17:44;;;;;;;7.22;5.47;;;;;;;;;;4922694;29;20251;-93
2021/08/08 01:20:12;;;;;;;8.15;5.20;;;;;;;;;;4922621;29;20176;-92
2021/08/08 01:22:56;;;;;;;7.63;5.05;;;16.40;99.90;;;;;;4922436;29;20634;-93
2021/08/08 01:25:23;;;;;;;9.18;5.25;;;;;;;;;;4932812;29;20195;-93
2021/08/08 01:27:53;;;;;;;6.07;4.93;;;;;;;;;;4943058;29;20180;-92
2021/08/08 01:30:21;;;;;;;6.20;4.72;;;;;;;;;;4939742;29;20184;-92
2021/08/08 01:32:50;;;;;;;7.72;4.95;;;;;;;;;;4927886;29;20187;-91
2021/08/08 01:35:16;;;;;;;8.65;5.10;;;;;;;;;;4922341;29;20247;-93
2021/08/08 01:37:45;;;;;;;14.43;5.00;;;;;;;;;;4921574;29;20242;-93
2021/08/08 01:40:11;;;;;;;6.75;4.82;;;;;;;;;;4906820;29;20184;-93
2021/08/08 01:42:42;;;;;;;8.85;5.53;;;;;;;;;;4921192;29;20186;-93
2021/08/08 01:45:12;;;;;;;7.82;5.32;;;;;;;;;;4922047;29;20542;-92
2021/08/08 01:47:43;;;;;;;6.68;4.95;;;16.40;99.90;;;;;;4922108;29;20183;-93
2021/08/08 01:50:09;;;;;;;11.07;4.85;;;;;;;;;;4921980;29;20187;-93
2021/08/08 01:52:36;;;;;;;7.22;4.95;;;;;;;;;;4921442;29;20226;-93
2021/08/08 01:55:02;;;;;;;5.90;4.78;;;;;;;;;;4921694;29;20213;-92
2021/08/08 01:57:31;;;;;;;9.98;5.20;;;;;;;;;;4905881;29;20284;-93
2021/08/08 02:00:02;;;;;;;8.63;4.90;;;;;;;;;;4921151;29;20187;-92
2021/08/08 02:02:30;;;;;;;10.07;4.70;;;;;;;;;;4921465;29;20183;-92
2021/08/08 02:04:56;;;;;;;5.57;4.57;;;;;;;;;;4922202;29;20199;-92
2021/08/08 02:07:22;;;;;;;6.93;4.82;;;;;;;;;;4921368;29;20179;-93
2021/08/08 02:09:49;;;;;;;8.27;4.70;;;;;;;;;;4921492;29;20239;-92
2021/08/08 02:12:15;;;;;;;5.93;4.60;;;;;;;;;;4921868;29;20180;-92
2021/08/08 02:14:41;;;;;;;6.22;4.90;;;;;;;;;;4921367;29;20633;-92
2021/08/08 02:17:07;;;;;;;8.27;5.05;;;;;;;;;;4921313;29;20180;-93
2021/08/08 02:19:43;;;;;;;;;;;;;;;;;;;;;
2021/08/08 02:22:10;;;;;;;6.30;4.82;;;;;;;;;;4939883;29;20185;-92
2021/08/08 02:24:39;;;;;;;7.28;4.22;;;;;;;;;;4922630;29;20239;-92
2021/08/08 02:27:05;;;;;;;8.13;4.80;;;;;;;;;;4923856;29;20180;-93
2021/08/08 02:29:33;;;;;;;5.22;4.38;;;;;;;;;;4924143;29;20188;-93
2021/08/08 02:32:03;;;;;;;7.20;4.70;;;;;;;;;;4910245;29;20190;-93
2021/08/08 02:34:31;;;;;;;7.00;5.22;;;;;;;;;;4925458;29;20548;-93
2021/08/08 02:37:05;;;;;;;7.65;5.63;;;;;;;;;;4921309;29;20184;-93
2021/08/08 02:39:31;;;;;;;8.25;4.70;;;;;;;;;;4921053;29;20271;-92
2021/08/08 02:42:02;;;;;;;11.70;5.43;;;;;;;;;;4921242;29;20191;-93
2021/08/08 02:44:28;;;;;;;8.20;4.55;;;;;;;;;;4909263;29;20238;-92
2021/08/08 02:46:54;;;;;;;7.22;4.85;;;;;;;;;;4923805;29;20187;-92
2021/08/08 02:49:23;;;;;;;7.90;4.60;;;;;;;;;;4922764;29;20267;-92
2021/08/08 02:51:51;;;;;;;8.35;5.03;;;;;;;;;;4922650;29;20180;-92
2021/08/08 02:54:22;;;;;;;7.18;4.68;;;;;;;;;;4923531;29;20219;-92
2021/08/08 02:56:48;;;;;;;6.80;4.72;;;;;;;;;;4921617;29;20637;-93
2021/08/08 02:59:16;;;;;;;6.25;4.65;;;;;;;;;;4920649;29;20227;-92
2021/08/08 03:01:42;;;;;;;6.55;4.95;;;;;;;;;;4920792;29;20209;-92
2021/08/08 03:04:12;;;;;;;5.95;4.57;;;;;;;;;;4921370;29;20188;-92
2021/08/08 03:06:44;;;;;;;5.53;4.53;;;16.20;99.90;;;;;;4907517;29;20180;-92
2021/08/08 03:09:10;;;;;;;6.95;4.63;;;;;;;;;;4922384;29;20232;-92
2021/08/08 03:11:36;;;;;;;6.13;4.47;;;;;;;;;;4922089;29;20188;-93
2021/08/08 03:14:02;;;;;;;14.02;4.53;;;;;;;;;;4920241;29;20315;-92
2021/08/08 03:16:31;;;;;;;5.50;4.40;;;;;;;;;;4920567;29;20247;-94
2021/08/08 03:18:59;;;;;;;6.32;4.30;;;;;;;;;;4905055;29;20677;-92
2021/08/08 03:21:25;;;;;;;8.48;4.53;;;;;;;;;;4921781;29;20183;-92
2021/08/08 03:23:54;;;;;;;6.07;4.45;;;;;;;;;;4923725;29;20180;-92
2021/08/08 03:26:22;;;;;;;10.43;4.22;;;;;;;;;;4923548;29;20187;-91
2021/08/08 03:28:53;;;;;;;7.88;3.92;;;;;;;;;;4924144;29;20198;-93
2021/08/08 03:31:22;;;;;;;6.03;4.50;;;;;;;;;;4929764;29;20188;-93
2021/08/08 03:33:48;;;;;;;5.45;4.07;;;;;;;;;;4928924;29;20184;-93
2021/08/08 03:36:17;;;;;;;6.25;3.67;;;;;;;;;;4926834;29;20231;-93
2021/08/08 03:38:43;;;;;;;5.38;3.97;;;;;;;;;;4936431;29;20199;-95
2021/08/08 03:41:11;;;;;;;4.38;3.90;;;;;;;;;;4944141;28;20231;-93
2021/08/08 03:43:42;;;;;;;4.25;3.35;;;;;;;;;;4922372;29;20190;-93
2021/08/08 03:46:10;;;;;;;5.72;3.00;;;;;;;;;;4928254;29;20180;-93
2021/08/08 03:48:39;;;;;;;6.88;3.70;;;;;;;;;;4919690;29;20203;-93
2021/08/08 03:51:08;;;;;;;7.28;4.38;;;;;;;;;;4904129;29;20184;-93
2021/08/08 03:53:36;;;;;;;4.57;3.88;;;;;;;;;;4918949;29;20192;-93
2021/08/08 03:56:03;;;;;;;5.55;3.40;;;;;;;;;;4919426;29;20180;-94
2021/08/08 03:58:32;;;;;;;6.78;3.53;;;;;;;;;;4919387;29;20263;-93
2021/08/08 04:00:59;;;;;;;4.00;3.33;;;;;;;;;;4919663;29;20176;-93
2021/08/08 04:03:25;;;;;;;4.93;3.53;;;;;;;;;;4903804;29;20569;-93
2021/08/08 04:05:54;;;;;;;5.82;3.67;;;;;;;;;;4941771;29;20178;-93
2021/08/08 04:08:20;;;;;;;4.15;3.45;;;;;;;;;;4925605;29;20243;-93
2021/08/08 04:10:48;;;;;;;4.70;3.70;;;;;;;;;;4925651;29;20568;-93
2021/08/08 04:13:26;;;;;;;6.82;3.55;;;;;;;;;;4913270;29;20191;-93
2021/08/08 04:15:52;;;;;;;6.28;3.42;;;;;;;;;;4945124;29;20235;-93
2021/08/08 04:18:18;;;;;;;3.72;3.10;;;;;;;;;;4925851;29;20310;-93
2021/08/08 04:20:49;;;;;;;5.07;3.00;;;;;;;;;;4942879;29;20183;-93
2021/08/08 04:23:16;;;;;;;3.20;2.90;;;;;;;;;;4911043;29;20274;-93
2021/08/08 04:25:45;;;;;;;3.70;2.75;;;;;;;;;;4925940;29;20190;-93
2021/08/08 04:28:13;;;;;;;5.25;3.17;;;;;;;;;;4926409;29;20633;-92
2021/08/08 04:30:51;;;;;;;3.95;2.85;;;;;;;;;;4925950;29;20632;-93
2021/08/08 04:33:19;;;;;;;2.78;2.53;;;;;;;;;;4930303;29;20331;-92
2021/08/08 04:35:48;;;;;;;3.38;2.28;;;;;;;;;;4926544;29;20270;-92
2021/08/08 04:38:14;;;;;;;4.50;2.90;;;;;;;;;;4929174;29;20227;-94
2021/08/08 04:41:00;;;;;;;5.63;3.15;;;;;;;;;;4926988;29;20199;-95
2021/08/08 04:43:28;;;;;;;5.07;2.70;;;;;;;;;;4926575;29;20535;-93
2021/08/08 04:45:57;;;;;;;18.67;3.95;;;;;;;;;;4926935;29;20668;-92
2021/08/08 04:48:28;;;;;;;3.58;2.90;;;;;;;;;;4927639;29;20207;-93
2021/08/08 04:50:57;;;;;;;3.95;2.30;;;;;;;;;;4926478;29;20183;-93
2021/08/08 04:53:23;;;;;;;3.33;2.40;;;;;;;;;;4927503;29;20188;-93
2021/08/08 04:55:49;;;;;;;4.53;2.63;;;;;;;;;;4926839;29;20179;-92
2021/08/08 04:58:46;;;;;;;6.78;2.67;;;19.50;99.90;;;;;;4910851;29;20324;-92
2021/08/08 05:01:14;;;;;;;3.67;2.60;;;;;;;;;;4889255;29;20173;-92
2021/08/08 05:03:40;;;;;;;8.75;2.17;;;;;;;;;;4889227;29;20627;-93
2021/08/08 05:06:24;;;;;;;;;;;;;;;;;;;;;
2021/08/08 05:08:50;;;;;;;4.40;2.55;;;;;;;;;;4905234;29;20240;-92
2021/08/08 05:11:21;;;;;;;3.13;2.30;;;20.00;99.90;;;;;;4889010;29;20213;-92
2021/08/08 05:13:47;;;;;;;3.13;2.40;;;;;;;;;;4888802;29;20718;-91
2021/08/08 05:16:14;;;;;;;6.13;3.63;;;;;;;;;;4885766;29;20186;-92
2021/08/08 05:18:42;;;;;;;3.22;2.42;;;20.40;99.90;;;;;;4887748;29;20209;-94
2021/08/08 05:21:11;;;;;;;2.97;2.20;;;;;;;;;;4885868;29;20189;-93
2021/08/08 05:23:37;;;;;;;3.80;2.10;;;;;;;;;;4886382;29;20181;-93
2021/08/08 05:26:14;;;;;;;9.85;2.20;;;20.80;99.90;;;;;;4902785;29;20192;-94
2021/08/08 05:28:42;;;;;;;4.70;2.30;;;;;;;;;;4871997;29;20531;-92
2021/08/08 05:31:08;;;;;;;2.55;2.08;;;;;;;;;;4885914;29;20190;-93
2021/08/08 05:33:34;;;;;;;5.20;2.20;;;;;;;;;;4885984;29;20544;-91
2021/08/08 05:36:00;;;;;;;3.20;2.30;;;;;;;;;;4885351;29;20181;-89
2021/08/08 05:38:26;;;;;;;3.75;1.80;;;;;;;;;;4901551;29;20295;-89
2021/08/08 05:40:53;;;;;;;2.47;2.28;;;;;;;;;;4885211;29;20193;-93
2021/08/08 05:43:19;;;;;;;2.63;2.17;;;;;;;;;;4886017;29;20182;-93
2021/08/08 05:45:47;;;;;;;5.03;2.53;;;;;;;;;;4885719;29;20217;-92
2021/08/08 05:48:14;;;;;;;3.78;2.25;;;;;;;;;;4885462;29;20181;-91
2021/08/08 05:50:45;;;;;;;2.60;2.08;;;21.50;99.90;;;;;;4902025;29;20177;-91
2021/08/08 05:53:11;;;;;;;2.42;2.22;;;;;;;;;;4889389;29;20243;-90
2021/08/08 05:55:41;;;;;;;4.90;2.38;;;;;;;;;;4923140;29;20271;-90
2021/08/08 05:58:07;;;;;;;4.05;1.90;;;;;;;;;;4922397;29;20308;-91
2021/08/08 06:00:36;;;;;;;3.08;1.75;;;;;;;;;;4921691;29;20184;-91
2021/08/08 06:03:11;;;;;;;3.65;2.00;;;22.00;99.90;;;;;;4920502;29;20594;-92
2021/08/08 06:05:50;;;;;;;5.63;2.10;;;22.10;99.90;;;;;;4920752;29;20179;-90
2021/08/08 06:08:21;;;;;;;4.78;1.77;;;22.30;99.90;;;;;;4920809;29;20232;-90
2021/08/08 06:10:47;;;;;;;6.78;1.90;;;;;;;;;;4920369;29;20203;-92
2021/08/08 06:13:17;;;;;;;2.85;1.95;;;22.40;99.90;;;;;;4920628;29;20263;-91
2021/08/08 06:15:43;;;;;;;2.92;1.63;;;;;;;;;;4905374;29;20713;-90
2021/08/08 06:18:10;;;;;;;3.20;1.70;;;;;;;;;;4937166;29;20235;-89
2021/08/08 06:20:36;;;;;;;4.90;2.22;;;;;;;;;;4937872;29;20179;-90
2021/08/08 06:23:02;;;;;;;3.35;1.88;;;;;;;;;;4920646;29;20180;-90
2021/08/08 06:25:31;;;;;;;3.65;2.17;;;;;;;;;;4920520;29;20175;-91
2021/08/08 06:27:57;;;;;;;1.95;1.75;;;;;;;;;;4920077;29;20191;-90
2021/08/08 06:30:23;;;;;;;4.72;2.28;;;;;;;;;;4937180;29;20564;-91
2021/08/08 06:32:51;;;;;;;2.85;1.77;;;;;;;;;;4919936;29;20267;-91
2021/08/08 06:35:17;;;;;;;3.42;1.85;;;;;;;;;;4919603;29;20188;-91
2021/08/08 06:37:45;;;;;;;2.35;1.67;;;;;;;;;;4904651;29;20271;-92
2021/08/08 06:40:14;;;;;;;3.50;2.30;;;;;;;;;;4936464;29;20187;-92
2021/08/08 06:42:40;;;;;;;5.18;1.85;;;;;;;;;;4919785;29;20638;-91
2021/08/08 06:45:07;;;;;;;2.10;1.88;;;;;;;;;;4921796;29;20676;-92
2021/08/08 06:47:33;;;;;;;2.90;2.05;;;;;;;;;;4923221;29;20179;-91
2021/08/08 06:50:01;;;;;;;2.88;1.88;;;;;;;;;;4920086;29;20271;-92
2021/08/08 06:52:30;;;;;;;2.92;2.25;;;;;;;;;;4920016;29;20235;-90
2021/08/08 06:54:56;;;;;;;3.83;2.08;;;;;;;;;;4920247;29;20176;-92
2021/08/08 06:57:27;;;;;;;2.83;2.00;;;21.90;99.90;;;;;;4920262;29;20661;-91
2021/08/08 06:59:55;;;;;;;3.08;1.80;;;;;;;;;;4901408;29;20212;-93
2021/08/08 07:02:51;;;;;;;3.95;1.70;;;;;;;;;;4901126;29;20185;-92
2021/08/08 07:05:12;;;;;;;5.25;2.10;;;;;;;;;;4901320;29;20212;-93
2021/08/08 07:07:38;;;;;;;2.35;1.95;;;;;;;;;;4900177;29;20181;-92
2021/08/08 07:10:07;;;;;;;3.13;2.00;;;;;;;;;;4915585;29;20228;-92
2021/08/08 07:12:33;;;;;;;5.43;1.85;;;;;;;;;;4917117;29;20196;-92
2021/08/08 07:14:59;;;;;;;3.20;2.20;;;;;;;;;;4930934;29;20188;-92
2021/08/08 07:17:25;;;;;;;2.22;1.90;;;;;;;;;;4912515;29;20256;-91
2021/08/08 07:19:51;;;;;;;4.03;2.03;;;;;;;;;;4904985;29;20232;-91
2021/08/08 07:22:20;;;;;;;2.35;1.55;;;;;;;;;;4907229;29;20350;-92
2021/08/08 07:24:51;;;;;;;3.03;2.00;;;;;;;;;;4904793;29;20192;-91
2021/08/08 07:27:21;;;;;;;2.67;1.73;;;;;;;;;;4915848;29;20168;-93
2021/08/08 07:29:50;;;;;;;2.80;1.90;;;;;;;;;;4938082;29;20176;-92
2021/08/08 07:32:16;;;;;;;2.63;1.85;;;;;;;;;;4903494;29;20677;-91
2021/08/08 07:34:42;;;;;;;2.78;1.85;;;;;;;;;;4892874;29;20192;-92
2021/08/08 07:37:08;;;;;;;4.20;2.67;;;;;;;;;;4917392;29;20248;-92
2021/08/08 07:39:37;;;;;;;2.35;1.75;;;22.30;99.90;;;;;;4906923;29;20222;-91
2021/08/08 07:42:06;;;;;;;3.17;1.85;;;;;;;;;;4890655;29;20190;-92
2021/08/08 07:44:32;;;;;;;1.95;1.77;;;;;;;;;;4903050;29;20192;-90
2021/08/08 07:46:58;;;;;;;4.80;2.17;;;;;;;;;;4916848;29;20275;-91
2021/08/08 07:49:24;;;;;;;2.55;1.90;;;;;;;;;;4906620;29;20195;-90
2021/08/08 07:51:52;;;;;;;2.08;1.73;;;22.30;99.90;;;;;;4907854;29;20182;-92
2021/08/08 07:54:20;;;;;;;5.03;1.90;;;;;;;;;;4887062;29;20189;-90
2021/08/08 07:56:52;;;;;;;4.00;2.33;;;22.00;99.90;;;;;;4908893;29;20249;-93
2021/08/08 07:59:20;;;;;;;9.38;2.05;;;;;;;;;;4917809;29;20237;-92
2021/08/08 08:02:07;;;;;;;3.47;1.95;;;21.80;99.90;;;;;;4912120;29;20200;-93
2021/08/08 08:04:49;;;;;;;4.32;1.98;;;21.80;99.90;;;;;;4887222;29;20240;-91
2021/08/08 08:07:15;;;;;;;3.30;2.08;;;;;;;;;;4880523;29;20173;-92
2021/08/08 08:09:41;;;;;;;5.15;2.60;;;;;;;;;;4900834;29;20229;-91
2021/08/08 08:12:08;;;;;;;5.05;1.75;;;;;;;;;;4912783;29;20187;-94
2021/08/08 08:14:34;;;;;;;5.93;2.08;;;21.70;99.90;;;;;;4904143;29;20213;-92
2021/08/08 08:17:00;;;;;;;5.55;1.90;;;;;;;;;;4916547;29;20176;-91
2021/08/08 08:19:26;;;;;;;4.85;2.10;;;;;;;;;;4920132;29;20223;-90
2021/08/08 08:21:53;;;;;;;2.45;1.85;;;;;;;;;;4911028;29;20653;-92
2021/08/08 08:24:19;;;;;;;2.65;1.90;;;;;;;;;;4907325;29;20713;-91
2021/08/08 08:26:45;;;;;;;4.28;2.22;;;;;;;;;;4900324;29;20185;-92
2021/08/08 08:29:11;;;;;;;2.85;2.10;;;;;;;;;;4894700;29;20189;-93
2021/08/08 08:31:37;;;;;;;3.83;2.03;;;;;;;;;;4897479;29;20192;-89
2021/08/08 08:34:03;;;;;;;5.28;1.95;;;21.50;99.90;;;;;;4897343;29;20185;-89
2021/08/08 08:36:29;;;;;;;2.97;2.15;;;;;;;;;;4895998;29;20194;-91
2021/08/08 08:38:55;;;;;;;7.43;1.70;;;;;;;;;;4890610;29;20229;-91
2021/08/08 08:41:30;;;;;;;3.75;2.22;;;21.40;99.90;;;;;;4899375;29;20266;-91
2021/08/08 08:43:59;;;;;;;7.15;2.40;;;;;;;;;;4891371;29;20185;-95
2021/08/08 08:46:36;;;;;;;6.68;2.22;;;21.30;99.90;;;;;;4918296;29;20319;-94
2021/08/08 08:49:02;;;;;;;4.32;2.80;;;;;;;;;;4911127;29;20195;-91
2021/08/08 08:51:42;;;;;;;3.38;2.65;;;21.10;99.90;;;;;;4919870;29;20239;-88
2021/08/08 08:54:11;;;;;;;3.72;2.42;;;21.00;99.90;;;;;;4906441;29;20184;-91
2021/08/08 08:56:39;;;;;;;4.38;2.72;;;;;;;;;;4907867;29;20284;-92
2021/08/08 08:59:06;;;;;;;3.80;2.78;;;;;;;;;;4910033;29;20670;-89
2021/08/08 09:01:32;;;;;;;5.50;3.70;;;;;;;;;;4910442;29;20189;-91
2021/08/08 09:03:58;;;;;;;5.10;2.92;;;;;;;;;;4905663;29;20236;-90
2021/08/08 09:06:34;;;;;;;4.22;3.22;;;;;;;;;;4902524;29;20202;-89
2021/08/08 09:09:03;;;;;;;6.22;3.60;;;;;;;;;;4918320;29;20227;-89
2021/08/08 09:11:39;;;;;;;3.50;3.08;;;;;;;;;;4912242;29;20185;-90
2021/08/08 09:14:06;;;;;;;6.90;3.55;;;;;;;;;;4922325;29;20179;-91
2021/08/08 09:16:37;;;;;;;4.47;3.58;;;;;;;;;;4927742;29;20284;-87
2021/08/08 09:19:05;;;;;;;4.28;3.33;;;;;;;;;;4914599;29;20206;-89
2021/08/08 09:21:34;;;;;;;6.45;3.72;;;20.30;99.90;;;;;;4938501;29;20200;-89
2021/08/08 09:24:01;;;;;;;4.47;3.20;;;;;;;;;;4920579;29;20172;-88
2021/08/08 09:26:28;;;;;;;5.40;2.78;;;20.30;99.90;;;;;;4920910;29;20362;-88
2021/08/08 09:29:03;;;;;;;4.63;3.00;;;20.20;99.90;;;;;;4911044;29;20192;-89
2021/08/08 09:31:29;;;;;;;3.67;3.20;;;;;;;;;;4886669;29;20183;-90
2021/08/08 09:33:55;;;;;;;4.88;3.53;;;;;;;;;;4916189;29;20184;-90
2021/08/08 09:36:21;;;;;;;5.15;2.67;;;;;;;;;;4914733;29;20188;-92
2021/08/08 09:38:47;;;;;;;3.45;3.03;;;;;;;;;;4887173;29;20209;-91
2021/08/08 09:41:50;;;;;;;6.90;3.35;;;20.20;99.90;;;;;;4936188;29;20186;-91
2021/08/08 09:44:18;;;;;;;3.00;2.70;;;;;;;;;;4919060;29;20278;-92
2021/08/08 09:46:56;;;;;;;8.70;2.60;;;20.10;99.90;;;;;;4921208;29;20183;-91
2021/08/08 09:52:10;;;;;;;3.15;2.70;;;;;;;;;;4928192;29;20600;-90
2021/08/08 09:54:37;;;;;;;6.90;3.15;;;20.10;99.90;;;;;;4897663;29;20704;-89
2021/08/08 09:57:18;;;;;;;5.00;3.50;;;;;;;;;;4905388;29;20224;-92
2021/08/08 10:00:23;;;;;;;4.40;2.95;;;20.00;99.90;;;;;;4910244;29;20212;-93
2021/08/08 10:02:53;;;;;;;5.55;3.22;;;;;;;;;;4906990;29;20176;-90
2021/08/08 10:05:20;;;;;;;7.60;3.40;;;;;;;;;;4906272;29;20180;-90
2021/08/08 10:07:56;;;;;;;3.70;3.15;;;;;;;;;;4911486;29;20247;-92
2021/08/08 10:10:23;;;;;;;3.95;3.33;;;19.90;99.90;;;;;;4899481;29;20693;-90
2021/08/08 10:12:49;;;;;;;3.90;3.20;;;;;;;;;;4903527;29;20284;-90
2021/08/08 10:15:19;;;;;;;3.00;2.80;;;19.90;99.90;;;;;;4905651;29;20236;-92
2021/08/08 10:17:45;;;;;;;4.13;3.00;;;;;;;;;;4902857;29;20180;-91
2021/08/08 10:20:20;;;;;;;3.85;3.20;;;19.90;99.90;;;;;;4904593;29;20188;-93
2021/08/08 10:23:17;;;;;;;8.50;3.40;;;19.90;99.90;;;;;;4897824;29;20180;-93
2021/08/08 10:26:19;;;;;;;;;;;;;;;;;;;;;
2021/08/08 10:28:51;;;;;;;3.75;3.25;;;;;;;;;;4917514;29;20204;-93
2021/08/08 10:35:18;;;;;;;3.80;2.97;;;20.10;99.90;;;;;;4934447;29;20219;-92
2021/08/08 10:37:56;;;;;;;;;;;;;;;;;;;;;
2021/08/08 10:40:52;;;;;;;;;;;;;;;;;;;;;
2021/08/08 10:43:29;;;;;;;3.85;2.90;;;20.20;99.90;;;;;;4923557;29;20255;-91
2021/08/08 10:46:11;;;;;;;6.95;3.30;;;20.30;99.90;;;;;;4920465;29;20192;-95
2021/08/08 10:48:39;;;;;;;3.35;3.05;;;20.40;99.90;;;;;;4924105;29;20203;-91
2021/08/08 10:51:46;;;;;;;3.28;2.83;;;20.50;99.90;;;;;;4920685;29;20263;-92
2021/08/08 10:55:03;;;;;;;5.03;3.40;;;20.40;99.90;;;;;;4827949;29;20187;-92
2021/08/08 11:05:25;;;;;;;;;;;;;;;;;;;;;
2021/08/08 11:08:48;;;;;;;;;;;;;;;;;;;;;
2021/08/08 11:11:48;;;;;;;3.25;2.95;;;20.70;99.90;;;;;;4799352;29;20674;-92
2021/08/08 11:24:37;;;;;;;2.90;2.60;;;20.80;99.90;;;;;;4819221;29;20242;-92
2021/08/08 11:27:34;;;;;;;;;;;;;;;;;;;;;
2021/08/08 11:30:12;;;;;;;5.63;2.80;;;20.80;99.90;;;;;;4863309;29;20206;-93
2021/08/08 11:33:21;;;;;;;3.83;3.33;;;20.80;99.90;;;;;;4862045;29;20237;-92
2021/08/08 11:36:42;;;;;;;;;;;;;;;;;;;;;
2021/08/08 11:39:39;;;;;;;6.13;3.03;;;20.80;99.90;;;;;;4919256;29;20211;-93
2021/08/08 11:46:31;;;;;;;;;;;;;;;;;;;;;
2021/08/08 11:56:34;;;;;;;;;;;;;;;;;;;;;
2021/08/08 11:59:30;;;;;;;4.47;2.75;;;22.20;99.90;;;;;;4882855;29;20207;-92
2021/08/08 12:02:08;;;;;;;2.33;2.13;;;22.10;99.90;;;;;;4869320;29;20189;-93
2021/08/08 12:04:55;;;;;;;3.00;2.70;;;22.00;99.90;;;;;;4869895;29;20197;-92
2021/08/08 12:07:28;;;;;;;3.35;2.60;;;22.30;99.90;;;;;;4906735;29;20190;-91
2021/08/08 12:11:08;;;;;;;;;;;;;;;;;;;;;
2021/08/08 12:13:37;;;;;;;7.53;3.20;;;;;;;;;;4780261;30;20266;-92
2021/08/08 12:16:21;;;;;;;2.83;2.53;;;22.60;99.90;;;;;;4793254;29;20195;-92
2021/08/08 12:19:02;;;;;;;3.47;2.97;;;22.60;99.90;;;;;;4906351;29;20234;-92
2021/08/08 12:24:48;;;;;;;3.03;2.53;;;22.60;99.90;;;;;;4926245;29;20188;-90
2021/08/08 12:27:52;;;;;;;3.97;2.60;;;22.50;99.90;;;;;;4923394;29;20211;-93
2021/08/08 12:30:29;;;;;;;2.83;2.60;;;22.50;99.90;;;;;;4885897;29;20192;-91
2021/08/08 12:33:38;;;;;;;4.60;2.50;;;22.70;99.90;;;;;;4922613;29;20179;-92
2021/08/08 12:40:43;;;;;;;;;;;;;;;;;;;;;
2021/08/08 12:43:27;;;;;;;2.85;2.25;;;22.80;99.90;;;;;;4820419;29;20191;-93
2021/08/08 12:46:25;;;;;;;4.43;2.60;;;22.70;99.90;;;;;;4887012;29;20468;-93
2021/08/08 12:49:02;;;;;;;5.88;2.33;;;22.80;99.90;;;;;;4922827;29;20279;-94
2021/08/08 12:51:44;;;;;;;2.97;2.65;;;22.90;99.90;;;;;;4914732;29;20233;-94
2021/08/08 12:57:36;;;;;;;2.40;2.20;;;;;;;;;;4943127;29;20204;-93
2021/08/08 13:00:49;;;;;;;2.47;2.28;;;23.60;99.90;;;;;;4924229;29;20215;-93
2021/08/08 13:03:22;;;;;;;;;;;;;;;;;;;;;
2021/08/08 13:06:08;;;;;;;2.67;2.13;;;23.60;99.90;;;;;;4926250;29;20176;-93
2021/08/08 13:08:38;;;;;;;2.20;2.00;;;23.50;99.90;;;;;;4940492;29;20231;-92
2021/08/08 13:11:05;;;;;;;4.13;1.80;;;;;;;;;;4909499;29;20761;-93
2021/08/08 13:13:55;;;;;;;4.00;2.00;;;23.40;99.90;;;;;;4925218;29;20184;-91
2021/08/08 13:16:21;;;;;;;2.58;2.38;;;;;;;;;;4924183;29;20328;-92
2021/08/08 13:18:53;;;;;;;2.45;2.25;;;;;;;;;;4923898;29;20318;-90
2021/08/08 13:22:12;;;;;;;;;;;;;;;;;;;;;
2021/08/08 13:28:25;;;;;;;5.13;2.20;;;23.70;99.90;;;;;;4908433;29;20192;-92
2021/08/08 13:30:52;;;;;;;2.13;1.92;;;;;;;;;;4925079;29;20176;-92
2021/08/08 13:33:18;;;;;;;2.33;1.77;;;;;;;;;;4921630;29;20191;-91
2021/08/08 13:35:44;;;;;;;3.05;1.90;;;;;;;;;;4922908;29;20187;-92
2021/08/08 13:38:11;;;;;;;2.28;1.90;;;;;;;;;;4922947;29;20183;-90
2021/08/08 13:40:37;;;;;;;4.10;2.22;;;;;;;;;;4925473;29;20194;-90
2021/08/08 13:43:33;;;;;;;;;;;;;;;;;;;;;
2021/08/08 13:46:10;;;;;;;2.28;1.85;;;24.10;99.90;;;;;;4932417;29;20267;-91
2021/08/08 13:49:28;;;;;;;;;;;;;;;;;;;;;
2021/08/08 13:54:47;;;;;;;2.42;2.22;;;;;;;;;;4904735;29;20226;-93
2021/08/08 13:57:15;;;;;;;2.90;2.38;;;;;;;;;;5118923;23;20261;-90
2021/08/08 14:00:24;;;;;;;2.35;1.80;;;23.90;99.90;;;;;;4922298;29;20212;-93
2021/08/08 14:02:53;;;;;;;2.20;2.00;;;24.10;99.90;;;;;;4867725;29;20188;-94
2021/08/08 14:09:21;;;;;;;;;;;;;;;;;;;;;
2021/08/08 14:11:52;;;;;;;2.03;1.70;;;24.20;99.90;;;;;;5356565;23;20247;-92
2021/08/08 14:14:18;;;;;;;3.03;1.80;;;;;;;;;;4933950;29;20237;-91
2021/08/08 14:16:44;;;;;;;2.17;1.55;;;;;;;;;;4938099;29;20194;-93
2021/08/08 14:19:11;;;;;;;2.00;1.90;;;;;;;;;;4937091;29;20205;-94
2021/08/08 14:21:37;;;;;;;2.05;1.85;;;;;;;;;;4922098;29;20181;-94
2021/08/08 14:24:05;;;;;;;2.65;2.08;;;;;;;;;;4921476;29;20176;-95
2021/08/08 14:26:36;;;;;;;3.13;2.30;;;24.60;99.90;;;;;;4937325;29;20199;-92
2021/08/08 14:29:10;;;;;;;3.03;1.85;;;;;;;;;;4920941;29;20166;-93
2021/08/08 14:31:38;;;;;;;3.40;2.03;;;;;;;;;;4917549;29;20252;-92
2021/08/08 14:34:04;;;;;;;1.95;1.77;;;;;;;;;;4917367;29;20220;-93
2021/08/08 14:36:41;;;;;;;2.10;1.90;;;;;;;;;;4916490;29;20196;-92
2021/08/08 14:39:10;;;;;;;1.90;1.70;;;;;;;;;;4916859;29;20212;-91
2021/08/08 14:41:36;;;;;;;5.35;1.60;;;;;;;;;;4916593;29;20193;-92
2021/08/08 14:44:05;;;;;;;4.72;1.40;;;;;;;;;;4917294;29;21145;-92
2021/08/08 14:46:31;;;;;;;1.77;1.63;;;;;;;;;;4926190;29;20249;-92
2021/08/08 14:49:26;;;;;;;;;;;;;;;;;;;;;
2021/08/08 14:51:47;;;;;;;2.30;1.77;;;;;;;;;;4903336;29;20706;-92
2021/08/08 14:54:20;;;;;;;2.08;1.55;;;;;;;;;;4917861;29;20165;-92
2021/08/08 14:56:49;;;;;;;7.72;1.83;;;;;;;;;;4917589;29;20253;-93
2021/08/08 14:59:48;;;;;;;1.88;1.67;;;24.10;99.90;;;;;;4917995;29;20221;-93
2021/08/08 15:02:16;;;;;;;2.90;1.80;;;24.20;99.90;;;;;;4891429;29;20213;-93
2021/08/08 15:05:05;;;;;;;1.70;1.50;;;24.20;99.90;;;;;;4902623;29;20190;-93
2021/08/08 15:07:41;;;;;;;2.17;1.80;;;24.20;99.90;;;;;;4900146;29;20281;-92
2021/08/08 15:10:56;;;;;;;1.67;1.58;;;24.20;99.90;;;;;;4915222;29;20208;-93
2021/08/08 15:14:01;;;;;;;3.60;1.48;;;24.20;99.90;;;;;;4896566;29;20679;-93
2021/08/08 15:16:27;;;;;;;2.58;1.63;;;;;;;;;;4915118;29;20177;-93
2021/08/08 15:18:59;;;;;;;1.98;1.70;;;;;;;;;;4914626;29;20217;-94
2021/08/08 15:21:44;;;;;;;2.08;1.70;;;;;;;;;;4908054;29;20189;-94
2021/08/08 15:24:10;;;;;;;2.47;1.50;;;;;;;;;;4886639;29;20197;-93
2021/08/08 15:26:55;;;;;;;;;;;;;;;;;;;;;
2021/08/08 15:32:10;;;;;;;2.60;1.40;;;;;;;;;;4922175;29;20251;-91
2021/08/08 15:34:36;;;;;;;1.77;1.60;;;;;;;;;;4935753;29;20218;-93
2021/08/08 15:37:04;;;;;;;1.83;1.70;;;;;;;;;;4932931;29;20188;-93
2021/08/08 15:39:41;;;;;;;2.67;1.70;;;;;;;;;;4899197;29;20245;-93
2021/08/08 15:42:08;;;;;;;4.20;1.90;;;;;;;;;;4884496;29;20193;-93
2021/08/08 15:44:45;;;;;;;2.25;1.48;;;;;;;;;;4898923;29;20193;-92
2021/08/08 15:47:39;;;;;;;2.05;1.67;;;24.20;99.90;;;;;;4905467;29;20195;-92
2021/08/08 15:50:14;;;;;;;6.63;1.67;;;;;;;;;;4921413;29;20184;-92
2021/08/08 15:56:38;;;;;;;2.90;2.20;;;24.20;99.90;;;;;;4823822;29;20232;-92
2021/08/08 15:59:12;;;;;;;2.15;1.73;;;;;;;;;;4865607;29;20229;-93
2021/08/08 16:01:41;;;;;;;2.70;2.00;;;;;;;;;;4899811;29;20706;-92
2021/08/08 16:04:10;;;;;;;5.05;1.60;;;;;;;;;;4917564;29;20184;-93